ESC weather

Public forecast

Using degrees Fahrenheit for public forecast. Weather courtesy of forecast.io.

Current aviation weather report (METAR) for Delta County Airport

Retrieved 2020/08/15 19:56 UTC (51 minutes ago):

KESC 151956Z AUTO 17010KT 10SM FEW039 SCT048 BKN060 24/19 A2992 RMK AO2 SLP132 T02440189

Closest aviation forecast (TAF) to Delta County Airport

Closest forecast is Sawyer International Airport, 39.9 nm (73.9 km) NNW. Retrieved 2020/08/15 18:36 UTC (2 hours ago):

TAF KSAW 151735Z 1518/1618 31009KT P6SM SCT035 FM152100 33010KT P6SM FEW060 FM160000 VRB04KT P6SM FEW100 FM161700 35007KT P6SM SCT050